sensor_id;sensor_type;location;lat;lon;timestamp;pressure;altitude;pressure_sealevel;temperature;humidity
71361;BME280;59166;48.908;1.870;2023-08-30T00:03:32;99840.91;;;14.06;100.00
71361;BME280;59166;48.908;1.870;2023-08-30T00:08:35;99835.03;;;13.99;100.00
71361;BME280;59166;48.908;1.870;2023-08-30T00:13:36;99821.19;;;14.00;100.00
71361;BME280;59166;48.908;1.870;2023-08-30T00:18:36;99818.84;;;13.94;100.00
71361;BME280;59166;48.908;1.870;2023-08-30T00:23:39;99808.19;;;13.97;100.00
71361;BME280;59166;48.908;1.870;2023-08-30T00:28:40;99812.16;;;14.05;100.00
71361;BME280;59166;48.908;1.870;2023-08-30T00:33:40;99796.66;;;14.05;100.00
71361;BME280;59166;48.908;1.870;2023-08-30T00:38:43;99792.94;;;14.01;100.00
71361;BME280;59166;48.908;1.870;2023-08-30T00:43:43;99793.00;;;13.96;100.00
71361;BME280;59166;48.908;1.870;2023-08-30T00:48:44;99788.97;;;13.94;100.00
71361;BME280;59166;48.908;1.870;2023-08-30T00:53:47;99776.47;;;13.93;100.00
71361;BME280;59166;48.908;1.870;2023-08-30T00:58:49;99775.44;;;13.88;100.00
71361;BME280;59166;48.908;1.870;2023-08-30T01:03:50;99775.38;;;13.94;100.00
71361;BME280;59166;48.908;1.870;2023-08-30T01:08:52;99772.44;;;13.90;100.00
71361;BME280;59166;48.908;1.870;2023-08-30T01:14:00;99768.13;;;13.89;100.00
71361;BME280;59166;48.908;1.870;2023-08-30T01:19:25;99754.84;;;13.87;100.00
71361;BME280;59166;48.908;1.870;2023-08-30T01:29:50;99747.00;;;13.86;100.00
71361;BME280;59166;48.908;1.870;2023-08-30T01:34:51;99744.28;;;13.86;100.00
71361;BME280;59166;48.908;1.870;2023-08-30T01:39:52;99738.19;;;13.94;100.00
71361;BME280;59166;48.908;1.870;2023-08-30T01:44:57;99729.72;;;13.96;100.00
71361;BME280;59166;48.908;1.870;2023-08-30T01:49:59;99732.16;;;13.97;100.00
71361;BME280;59166;48.908;1.870;2023-08-30T01:55:02;99734.06;;;13.97;100.00
71361;BME280;59166;48.908;1.870;2023-08-30T02:00:06;99736.78;;;13.97;100.00
71361;BME280;59166;48.908;1.870;2023-08-30T02:05:07;99729.50;;;13.92;100.00
71361;BME280;59166;48.908;1.870;2023-08-30T02:10:09;99720.19;;;13.98;100.00
71361;BME280;59166;48.908;1.870;2023-08-30T02:15:13;99721.72;;;14.04;100.00
71361;BME280;59166;48.908;1.870;2023-08-30T02:20:15;99720.69;;;14.00;100.00
71361;BME280;59166;48.908;1.870;2023-08-30T02:25:16;99720.81;;;14.09;100.00
71361;BME280;59166;48.908;1.870;2023-08-30T02:30:19;99712.56;;;14.00;100.00
71361;BME280;59166;48.908;1.870;2023-08-30T02:35:20;99711.56;;;14.10;100.00
71361;BME280;59166;48.908;1.870;2023-08-30T02:40:21;99709.72;;;14.05;100.00
71361;BME280;59166;48.908;1.870;2023-08-30T02:45:23;99705.09;;;14.06;100.00
71361;BME280;59166;48.908;1.870;2023-08-30T02:50:24;99700.50;;;14.06;100.00
71361;BME280;59166;48.908;1.870;2023-08-30T02:55:25;99699.91;;;14.09;100.00
71361;BME280;59166;48.908;1.870;2023-08-30T03:00:27;99706.13;;;14.10;100.00
71361;BME280;59166;48.908;1.870;2023-08-30T03:05:28;99699.81;;;14.14;100.00
71361;BME280;59166;48.908;1.870;2023-08-30T03:10:29;99698.19;;;14.13;100.00
71361;BME280;59166;48.908;1.870;2023-08-30T03:15:32;99696.50;;;14.17;100.00
71361;BME280;59166;48.908;1.870;2023-08-30T03:20:33;99687.25;;;14.18;100.00
71361;BME280;59166;48.908;1.870;2023-08-30T03:25:34;99688.56;;;14.21;100.00
71361;BME280;59166;48.908;1.870;2023-08-30T03:30:36;99689.38;;;14.21;100.00
71361;BME280;59166;48.908;1.870;2023-08-30T03:35:37;99680.91;;;14.23;100.00
71361;BME280;59166;48.908;1.870;2023-08-30T03:40:38;99670.56;;;14.25;100.00
71361;BME280;59166;48.908;1.870;2023-08-30T03:45:41;99664.75;;;14.31;100.00
71361;BME280;59166;48.908;1.870;2023-08-30T03:50:41;99665.84;;;14.30;100.00
71361;BME280;59166;48.908;1.870;2023-08-30T03:55:42;99656.28;;;14.33;100.00
71361;BME280;59166;48.908;1.870;2023-08-30T04:00:45;99662.22;;;14.35;100.00
71361;BME280;59166;48.908;1.870;2023-08-30T04:05:46;99665.44;;;14.37;100.00
71361;BME280;59166;48.908;1.870;2023-08-30T04:10:47;99660.41;;;14.44;100.00
71361;BME280;59166;48.908;1.870;2023-08-30T04:15:49;99661.22;;;14.45;100.00
71361;BME280;59166;48.908;1.870;2023-08-30T04:20:51;99653.34;;;14.43;100.00
71361;BME280;59166;48.908;1.870;2023-08-30T04:25:52;99646.00;;;14.43;100.00
71361;BME280;59166;48.908;1.870;2023-08-30T04:30:55;99650.34;;;14.45;100.00
71361;BME280;59166;48.908;1.870;2023-08-30T04:35:56;99649.75;;;14.48;100.00
71361;BME280;59166;48.908;1.870;2023-08-30T04:40:57;99640.91;;;14.42;100.00
71361;BME280;59166;48.908;1.870;2023-08-30T04:45:59;99649.84;;;14.42;100.00
71361;BME280;59166;48.908;1.870;2023-08-30T04:51:01;99647.63;;;14.45;100.00
71361;BME280;59166;48.908;1.870;2023-08-30T04:56:10;99644.91;;;14.45;100.00
71361;BME280;59166;48.908;1.870;2023-08-30T05:01:12;99653.06;;;14.45;100.00
71361;BME280;59166;48.908;1.870;2023-08-30T05:06:13;99655.47;;;14.60;100.00
71361;BME280;59166;48.908;1.870;2023-08-30T05:11:14;99662.72;;;14.64;100.00
71361;BME280;59166;48.908;1.870;2023-08-30T05:16:16;99664.75;;;14.72;100.00
71361;BME280;59166;48.908;1.870;2023-08-30T05:21:17;99654.06;;;14.76;100.00
71361;BME280;59166;48.908;1.870;2023-08-30T05:26:18;99653.06;;;14.85;100.00
71361;BME280;59166;48.908;1.870;2023-08-30T05:31:21;99649.63;;;14.93;100.00
71361;BME280;59166;48.908;1.870;2023-08-30T05:36:21;99648.25;;;14.96;100.00
71361;BME280;59166;48.908;1.870;2023-08-30T05:41:22;99647.00;;;15.02;100.00
71361;BME280;59166;48.908;1.870;2023-08-30T05:46:25;99646.63;;;14.95;100.00
71361;BME280;59166;48.908;1.870;2023-08-30T05:51:25;99649.84;;;14.97;100.00
71361;BME280;59166;48.908;1.870;2023-08-30T05:56:26;99652.47;;;15.02;100.00
71361;BME280;59166;48.908;1.870;2023-08-30T06:01:29;99654.66;;;15.00;100.00
71361;BME280;59166;48.908;1.870;2023-08-30T06:06:30;99658.19;;;15.01;100.00
71361;BME280;59166;48.908;1.870;2023-08-30T06:11:30;99664.44;;;15.01;100.00
71361;BME280;59166;48.908;1.870;2023-08-30T06:16:34;99664.84;;;15.08;100.00
71361;BME280;59166;48.908;1.870;2023-08-30T06:21:35;99662.19;;;15.03;100.00
71361;BME280;59166;48.908;1.870;2023-08-30T06:26:36;99659.47;;;15.03;100.00
71361;BME280;59166;48.908;1.870;2023-08-30T06:31:38;99652.84;;;15.09;100.00
71361;BME280;59166;48.908;1.870;2023-08-30T06:36:39;99654.81;;;15.17;100.00
71361;BME280;59166;48.908;1.870;2023-08-30T06:41:40;99665.28;;;15.24;100.00
71361;BME280;59166;48.908;1.870;2023-08-30T06:46:42;99669.91;;;15.23;100.00
71361;BME280;59166;48.908;1.870;2023-08-30T06:51:43;99672.75;;;15.32;100.00
71361;BME280;59166;48.908;1.870;2023-08-30T06:56:57;99680.97;;;15.40;100.00
71361;BME280;59166;48.908;1.870;2023-08-30T07:01:59;99675.59;;;15.49;100.00
71361;BME280;59166;48.908;1.870;2023-08-30T07:07:00;99679.72;;;15.60;100.00
71361;BME280;59166;48.908;1.870;2023-08-30T07:12:05;99676.56;;;15.67;100.00
71361;BME280;59166;48.908;1.870;2023-08-30T07:17:08;99682.13;;;15.84;100.00
71361;BME280;59166;48.908;1.870;2023-08-30T07:22:08;99673.19;;;15.92;100.00
71361;BME280;59166;48.908;1.870;2023-08-30T07:27:09;99690.19;;;16.11;100.00
71361;BME280;59166;48.908;1.870;2023-08-30T07:32:12;99683.59;;;16.12;100.00
71361;BME280;59166;48.908;1.870;2023-08-30T07:37:19;99679.88;;;16.08;100.00
71361;BME280;59166;48.908;1.870;2023-08-30T07:42:20;99697.59;;;16.19;100.00
71361;BME280;59166;48.908;1.870;2023-08-30T07:47:22;99690.44;;;16.32;100.00
71361;BME280;59166;48.908;1.870;2023-08-30T07:52:23;99693.53;;;16.39;100.00
71361;BME280;59166;48.908;1.870;2023-08-30T07:57:24;99686.53;;;16.47;100.00
71361;BME280;59166;48.908;1.870;2023-08-30T08:02:27;99683.66;;;16.52;100.00
71361;BME280;59166;48.908;1.870;2023-08-30T08:07:27;99681.06;;;16.47;100.00
71361;BME280;59166;48.908;1.870;2023-08-30T08:12:28;99681.91;;;16.56;100.00
71361;BME280;59166;48.908;1.870;2023-08-30T08:17:31;99684.34;;;16.66;100.00
71361;BME280;59166;48.908;1.870;2023-08-30T08:22:32;99687.47;;;16.90;96.51
71361;BME280;59166;48.908;1.870;2023-08-30T08:27:33;99691.81;;;17.00;93.27
71361;BME280;59166;48.908;1.870;2023-08-30T08:32:35;99684.47;;;17.09;89.67
71361;BME280;59166;48.908;1.870;2023-08-30T08:37:36;99691.41;;;17.15;86.57
71361;BME280;59166;48.908;1.870;2023-08-30T08:42:37;99689.66;;;17.27;81.69
71361;BME280;59166;48.908;1.870;2023-08-30T08:47:40;99690.81;;;17.35;80.77
71361;BME280;59166;48.908;1.870;2023-08-30T08:52:41;99695.94;;;17.54;78.10
71361;BME280;59166;48.908;1.870;2023-08-30T08:57:42;99703.00;;;17.80;76.89
71361;BME280;59166;48.908;1.870;2023-08-30T09:02:46;99694.41;;;18.51;72.18
71361;BME280;59166;48.908;1.870;2023-08-30T09:07:48;99705.03;;;18.43;73.07
71361;BME280;59166;48.908;1.870;2023-08-30T09:12:49;99701.69;;;18.12;74.27
71361;BME280;59166;48.908;1.870;2023-08-30T09:17:52;99701.22;;;18.19;70.70
71361;BME280;59166;48.908;1.870;2023-08-30T09:22:52;99696.94;;;18.93;65.28
71361;BME280;59166;48.908;1.870;2023-08-30T09:27:57;99706.09;;;19.27;63.04
71361;BME280;59166;48.908;1.870;2023-08-30T09:33:02;99708.19;;;18.92;62.12
71361;BME280;59166;48.908;1.870;2023-08-30T09:38:04;99703.56;;;19.42;61.69
71361;BME280;59166;48.908;1.870;2023-08-30T09:43:05;99715.28;;;19.93;60.58
71361;BME280;59166;48.908;1.870;2023-08-30T09:48:07;99704.22;;;19.39;62.87
71361;BME280;59166;48.908;1.870;2023-08-30T09:53:09;99702.84;;;19.04;64.53
71361;BME280;59166;48.908;1.870;2023-08-30T09:58:12;99696.84;;;19.61;62.44
71361;BME280;59166;48.908;1.870;2023-08-30T10:03:15;99708.59;;;19.82;62.03
71361;BME280;59166;48.908;1.870;2023-08-30T10:08:16;99706.09;;;20.10;60.01
71361;BME280;59166;48.908;1.870;2023-08-30T10:13:19;99687.50;;;20.15;58.68
71361;BME280;59166;48.908;1.870;2023-08-30T10:18:25;99697.47;;;20.32;60.70
71361;BME280;59166;48.908;1.870;2023-08-30T10:23:28;99716.84;;;20.60;59.73
71361;BME280;59166;48.908;1.870;2023-08-30T10:28:31;99709.13;;;20.29;59.05
71361;BME280;59166;48.908;1.870;2023-08-30T10:33:46;99716.56;;;20.40;60.97
71361;BME280;59166;48.908;1.870;2023-08-30T10:38:49;99714.03;;;20.23;59.69
71361;BME280;59166;48.908;1.870;2023-08-30T10:43:51;99715.16;;;20.22;62.61
71361;BME280;59166;48.908;1.870;2023-08-30T10:48:53;99702.56;;;20.66;58.85
71361;BME280;59166;48.908;1.870;2023-08-30T10:53:57;99706.59;;;20.24;57.61
71361;BME280;59166;48.908;1.870;2023-08-30T10:58:58;99706.25;;;20.25;60.58
71361;BME280;59166;48.908;1.870;2023-08-30T11:04:01;99708.81;;;20.42;58.53
71361;BME280;59166;48.908;1.870;2023-08-30T11:09:03;99694.66;;;19.87;57.82
71361;BME280;59166;48.908;1.870;2023-08-30T11:14:06;99693.41;;;20.62;55.86
71361;BME280;59166;48.908;1.870;2023-08-30T11:19:09;99688.72;;;20.75;56.31
71361;BME280;59166;48.908;1.870;2023-08-30T11:24:10;99686.00;;;20.99;54.73
71361;BME280;59166;48.908;1.870;2023-08-30T11:29:11;99683.16;;;21.72;53.42
71361;BME280;59166;48.908;1.870;2023-08-30T11:34:14;99682.59;;;22.37;52.90
71361;BME280;59166;48.908;1.870;2023-08-30T11:39:16;99692.06;;;22.40;56.99
71361;BME280;59166;48.908;1.870;2023-08-30T11:44:17;99702.44;;;21.47;58.17
71361;BME280;59166;48.908;1.870;2023-08-30T11:49:19;99687.81;;;20.59;60.04
71361;BME280;59166;48.908;1.870;2023-08-30T11:54:21;99693.53;;;20.54;61.79
71361;BME280;59166;48.908;1.870;2023-08-30T11:59:22;99694.59;;;20.16;60.26
71361;BME280;59166;48.908;1.870;2023-08-30T12:04:25;99686.69;;;21.08;56.93
71361;BME280;59166;48.908;1.870;2023-08-30T12:09:30;99695.88;;;21.52;50.05
71361;BME280;59166;48.908;1.870;2023-08-30T12:14:33;99686.94;;;20.91;53.97
71361;BME280;59166;48.908;1.870;2023-08-30T12:19:36;99684.50;;;21.66;54.99
71361;BME280;59166;48.908;1.870;2023-08-30T12:24:43;99690.31;;;21.88;52.37
71361;BME280;59166;48.908;1.870;2023-08-30T12:29:44;99703.41;;;20.91;50.24
71361;BME280;59166;48.908;1.870;2023-08-30T12:34:47;99710.38;;;20.19;52.85
71361;BME280;59166;48.908;1.870;2023-08-30T12:39:47;99702.44;;;20.06;52.75
71361;BME280;59166;48.908;1.870;2023-08-30T12:44:48;99708.88;;;20.67;53.02
71361;BME280;59166;48.908;1.870;2023-08-30T12:49:51;99709.34;;;21.17;52.39
71361;BME280;59166;48.908;1.870;2023-08-30T12:54:52;99707.38;;;20.69;51.58
71361;BME280;59166;48.908;1.870;2023-08-30T12:59:52;99707.03;;;20.83;53.42
71361;BME280;59166;48.908;1.870;2023-08-30T13:04:55;99710.88;;;20.45;57.60
71361;BME280;59166;48.908;1.870;2023-08-30T13:09:56;99711.59;;;20.79;57.97
71361;BME280;59166;48.908;1.870;2023-08-30T13:14:56;99716.66;;;21.13;55.57
71361;BME280;59166;48.908;1.870;2023-08-30T13:19:59;99723.97;;;20.85;55.32
71361;BME280;59166;48.908;1.870;2023-08-30T13:24:59;99716.25;;;20.54;57.71
71361;BME280;59166;48.908;1.870;2023-08-30T13:30:00;99719.59;;;20.72;56.91
71361;BME280;59166;48.908;1.870;2023-08-30T13:35:04;99725.84;;;21.17;53.82
71361;BME280;59166;48.908;1.870;2023-08-30T13:40:06;99723.28;;;20.76;50.34
71361;BME280;59166;48.908;1.870;2023-08-30T13:45:08;99717.41;;;20.53;52.11
71361;BME280;59166;48.908;1.870;2023-08-30T13:50:11;99719.97;;;20.25;53.57
71361;BME280;59166;48.908;1.870;2023-08-30T13:55:12;99722.72;;;20.25;51.07
71361;BME280;59166;48.908;1.870;2023-08-30T14:00:14;99725.84;;;20.93;53.16
71361;BME280;59166;48.908;1.870;2023-08-30T14:05:16;99717.44;;;21.90;50.13
71361;BME280;59166;48.908;1.870;2023-08-30T14:10:17;99719.00;;;21.75;50.17
71361;BME280;59166;48.908;1.870;2023-08-30T14:15:18;99733.50;;;21.88;49.28
71361;BME280;59166;48.908;1.870;2023-08-30T14:20:20;99741.16;;;21.18;49.08
71361;BME280;59166;48.908;1.870;2023-08-30T14:25:21;99751.47;;;21.21;50.55
71361;BME280;59166;48.908;1.870;2023-08-30T14:30:22;99746.75;;;21.34;48.30
71361;BME280;59166;48.908;1.870;2023-08-30T14:35:25;99735.44;;;21.23;49.44
71361;BME280;59166;48.908;1.870;2023-08-30T14:40:26;99747.09;;;21.08;50.09
71361;BME280;59166;48.908;1.870;2023-08-30T14:45:27;99735.44;;;20.87;50.35
71361;BME280;59166;48.908;1.870;2023-08-30T14:50:29;99748.00;;;20.88;54.33
71361;BME280;59166;48.908;1.870;2023-08-30T14:55:30;99755.78;;;20.74;54.18
71361;BME280;59166;48.908;1.870;2023-08-30T15:00:31;99755.22;;;20.35;55.77
71361;BME280;59166;48.908;1.870;2023-08-30T15:05:34;99758.41;;;20.05;54.23
71361;BME280;59166;48.908;1.870;2023-08-30T15:10:35;99754.78;;;19.92;56.60
71361;BME280;59166;48.908;1.870;2023-08-30T15:15:36;99774.31;;;20.11;54.86
71361;BME280;59166;48.908;1.870;2023-08-30T15:20:38;99780.50;;;20.20;53.92
71361;BME280;59166;48.908;1.870;2023-08-30T15:25:39;99771.44;;;20.08;55.68
71361;BME280;59166;48.908;1.870;2023-08-30T15:30:42;99777.97;;;19.94;55.84
71361;BME280;59166;48.908;1.870;2023-08-30T15:35:44;99767.88;;;19.86;55.03
71361;BME280;59166;48.908;1.870;2023-08-30T15:40:47;99775.78;;;19.88;54.31
71361;BME280;59166;48.908;1.870;2023-08-30T15:45:53;99766.69;;;19.96;56.54
71361;BME280;59166;48.908;1.870;2023-08-30T15:50:55;99770.53;;;20.36;54.72
71361;BME280;59166;48.908;1.870;2023-08-30T15:55:56;99767.56;;;20.41;55.64
71361;BME280;59166;48.908;1.870;2023-08-30T16:01:03;99764.56;;;20.02;54.90
71361;BME280;59166;48.908;1.870;2023-08-30T16:06:05;99761.66;;;19.57;55.80
71361;BME280;59166;48.908;1.870;2023-08-30T16:11:06;99770.28;;;19.67;56.26
71361;BME280;59166;48.908;1.870;2023-08-30T16:16:07;99760.53;;;19.99;56.50
71361;BME280;59166;48.908;1.870;2023-08-30T16:21:09;99773.44;;;19.78;55.55
71361;BME280;59166;48.908;1.870;2023-08-30T16:26:10;99756.38;;;19.52;56.22
71361;BME280;59166;48.908;1.870;2023-08-30T16:31:11;99768.28;;;19.76;54.38
71361;BME280;59166;48.908;1.870;2023-08-30T16:36:14;99776.19;;;20.19;54.16
71361;BME280;59166;48.908;1.870;2023-08-30T16:41:15;99767.38;;;20.59;54.65
71361;BME280;59166;48.908;1.870;2023-08-30T16:46:16;99781.81;;;20.68;52.51
71361;BME280;59166;48.908;1.870;2023-08-30T16:51:18;99768.88;;;20.56;53.96
71361;BME280;59166;48.908;1.870;2023-08-30T16:56:19;99766.81;;;20.20;54.65
71361;BME280;59166;48.908;1.870;2023-08-30T17:01:20;99777.84;;;19.70;55.13
71361;BME280;59166;48.908;1.870;2023-08-30T17:06:23;99771.78;;;19.35;57.35
71361;BME280;59166;48.908;1.870;2023-08-30T17:11:24;99775.22;;;19.24;58.57
71361;BME280;59166;48.908;1.870;2023-08-30T17:16:26;99772.50;;;19.24;59.32
71361;BME280;59166;48.908;1.870;2023-08-30T17:21:29;99769.81;;;19.15;58.68
71361;BME280;59166;48.908;1.870;2023-08-30T17:26:30;99774.94;;;19.17;61.10
71361;BME280;59166;48.908;1.870;2023-08-30T17:31:32;99782.88;;;19.01;61.61
71361;BME280;59166;48.908;1.870;2023-08-30T17:36:34;99782.94;;;18.84;66.62
71361;BME280;59166;48.908;1.870;2023-08-30T17:41:35;99784.78;;;18.63;65.38
71361;BME280;59166;48.908;1.870;2023-08-30T17:46:36;99784.50;;;18.38;65.97
71361;BME280;59166;48.908;1.870;2023-08-30T17:51:39;99794.53;;;18.17;67.06
71361;BME280;59166;48.908;1.870;2023-08-30T17:56:40;99796.09;;;18.01;66.78
71361;BME280;59166;48.908;1.870;2023-08-30T18:01:42;99799.78;;;17.79;66.94
71361;BME280;59166;48.908;1.870;2023-08-30T18:06:45;99814.38;;;17.58;68.60
71361;BME280;59166;48.908;1.870;2023-08-30T18:11:46;99809.03;;;17.44;69.61
71361;BME280;59166;48.908;1.870;2023-08-30T18:16:47;99820.22;;;17.25;70.46
71361;BME280;59166;48.908;1.870;2023-08-30T18:21:49;99827.69;;;17.11;71.90
71361;BME280;59166;48.908;1.870;2023-08-30T18:26:50;99821.66;;;16.92;72.33
71361;BME280;59166;48.908;1.870;2023-08-30T18:31:51;99824.59;;;16.73;73.33
71361;BME280;59166;48.908;1.870;2023-08-30T18:36:53;99817.97;;;16.66;73.52
71361;BME280;59166;48.908;1.870;2023-08-30T18:41:54;99828.66;;;16.54;75.28
71361;BME280;59166;48.908;1.870;2023-08-30T18:46:54;99830.47;;;16.36;76.32
71361;BME280;59166;48.908;1.870;2023-08-30T18:51:57;99825.69;;;16.19;78.22
71361;BME280;59166;48.908;1.870;2023-08-30T18:56:57;99829.16;;;16.11;78.24
71361;BME280;59166;48.908;1.870;2023-08-30T19:01:58;99834.31;;;15.99;78.82
71361;BME280;59166;48.908;1.870;2023-08-30T19:07:00;99837.75;;;15.91;79.68
71361;BME280;59166;48.908;1.870;2023-08-30T19:12:01;99846.66;;;15.83;79.94
71361;BME280;59166;48.908;1.870;2023-08-30T19:17:02;99847.50;;;15.70;80.86
71361;BME280;59166;48.908;1.870;2023-08-30T19:22:04;99858.59;;;15.60;81.14
71361;BME280;59166;48.908;1.870;2023-08-30T19:27:05;99855.16;;;15.40;82.29
71361;BME280;59166;48.908;1.870;2023-08-30T19:32:06;99869.16;;;15.34;82.72
71361;BME280;59166;48.908;1.870;2023-08-30T19:37:09;99865.75;;;15.28;83.70
71361;BME280;59166;48.908;1.870;2023-08-30T19:42:10;99869.47;;;15.19;84.38
71361;BME280;59166;48.908;1.870;2023-08-30T19:47:11;99880.38;;;15.19;84.31
71361;BME280;59166;48.908;1.870;2023-08-30T19:52:13;99878.75;;;15.18;84.08
71361;BME280;59166;48.908;1.870;2023-08-30T19:57:14;99888.72;;;15.09;85.57
71361;BME280;59166;48.908;1.870;2023-08-30T20:02:15;99893.94;;;15.05;86.69
71361;BME280;59166;48.908;1.870;2023-08-30T20:07:17;99894.97;;;15.09;87.37
71361;BME280;59166;48.908;1.870;2023-08-30T20:12:34;99898.09;;;15.16;86.47
71361;BME280;59166;48.908;1.870;2023-08-30T20:17:38;99888.00;;;15.17;85.46
71361;BME280;59166;48.908;1.870;2023-08-30T20:22:53;99892.13;;;15.14;84.98
71361;BME280;59166;48.908;1.870;2023-08-30T20:27:57;99899.59;;;15.09;86.95
71361;BME280;59166;48.908;1.870;2023-08-30T20:33:05;99909.66;;;15.08;86.67
71361;BME280;59166;48.908;1.870;2023-08-30T20:38:27;99911.78;;;15.11;86.13
71361;BME280;59166;48.908;1.870;2023-08-30T20:43:34;99912.81;;;15.15;87.58
71361;BME280;59166;48.908;1.870;2023-08-30T20:48:35;99911.50;;;15.13;88.22
71361;BME280;59166;48.908;1.870;2023-08-30T20:53:47;99919.88;;;15.16;89.31
71361;BME280;59166;48.908;1.870;2023-08-30T20:58:48;99919.06;;;15.16;88.97
71361;BME280;59166;48.908;1.870;2023-08-30T21:03:49;99926.19;;;15.12;89.29
71361;BME280;59166;48.908;1.870;2023-08-30T21:08:57;99929.72;;;15.12;90.63
71361;BME280;59166;48.908;1.870;2023-08-30T21:14:01;99931.94;;;15.10;90.47
71361;BME280;59166;48.908;1.870;2023-08-30T21:19:07;99934.75;;;15.05;90.33
71361;BME280;59166;48.908;1.870;2023-08-30T21:24:10;99939.78;;;14.98;90.38
71361;BME280;59166;48.908;1.870;2023-08-30T21:29:11;99934.13;;;14.95;89.62
71361;BME280;59166;48.908;1.870;2023-08-30T21:34:12;99921.97;;;14.87;87.87
71361;BME280;59166;48.908;1.870;2023-08-30T21:39:19;99927.28;;;14.78;88.84
71361;BME280;59166;48.908;1.870;2023-08-30T21:44:32;99926.25;;;14.74;89.25
71361;BME280;59166;48.908;1.870;2023-08-30T21:49:42;99927.75;;;14.67;86.96
71361;BME280;59166;48.908;1.870;2023-08-30T21:54:44;99926.50;;;14.59;87.28
71361;BME280;59166;48.908;1.870;2023-08-30T21:59:48;99926.88;;;14.53;87.96
71361;BME280;59166;48.908;1.870;2023-08-30T22:04:52;99930.78;;;14.47;87.92
71361;BME280;59166;48.908;1.870;2023-08-30T22:10:00;99918.38;;;14.40;88.94
71361;BME280;59166;48.908;1.870;2023-08-30T22:15:02;99920.00;;;14.41;91.12
71361;BME280;59166;48.908;1.870;2023-08-30T22:20:03;99921.81;;;14.46;91.68
71361;BME280;59166;48.908;1.870;2023-08-30T22:25:08;99918.31;;;14.46;92.54
71361;BME280;59166;48.908;1.870;2023-08-30T22:30:15;99923.22;;;14.43;92.28
71361;BME280;59166;48.908;1.870;2023-08-30T22:35:16;99929.75;;;14.42;91.82
71361;BME280;59166;48.908;1.870;2023-08-30T22:40:26;99931.16;;;14.40;93.02
71361;BME280;59166;48.908;1.870;2023-08-30T22:45:27;99937.44;;;14.35;93.15
71361;BME280;59166;48.908;1.870;2023-08-30T22:50:27;99945.91;;;14.34;92.85
71361;BME280;59166;48.908;1.870;2023-08-30T22:55:29;99937.44;;;14.35;91.91
71361;BME280;59166;48.908;1.870;2023-08-30T23:00:30;99939.88;;;14.37;93.01
71361;BME280;59166;48.908;1.870;2023-08-30T23:05:31;99924.41;;;14.37;93.67
71361;BME280;59166;48.908;1.870;2023-08-30T23:10:33;99923.31;;;14.38;92.99
71361;BME280;59166;48.908;1.870;2023-08-30T23:15:33;99924.91;;;14.39;93.07
71361;BME280;59166;48.908;1.870;2023-08-30T23:20:34;99932.25;;;14.39;92.43
71361;BME280;59166;48.908;1.870;2023-08-30T23:25:38;99937.44;;;14.35;92.63
71361;BME280;59166;48.908;1.870;2023-08-30T23:30:39;99938.84;;;14.33;91.35
71361;BME280;59166;48.908;1.870;2023-08-30T23:35:39;99946.28;;;14.27;90.40
71361;BME280;59166;48.908;1.870;2023-08-30T23:40:41;99945.41;;;14.32;90.26
71361;BME280;59166;48.908;1.870;2023-08-30T23:45:42;99946.72;;;14.34;90.15
71361;BME280;59166;48.908;1.870;2023-08-30T23:50:43;99938.56;;;14.34;91.11
71361;BME280;59166;48.908;1.870;2023-08-30T23:55:48;99960.91;;;14.31;90.28
